createdAt,value
2023-05-06T00:00:03.650Z,1.70
2023-05-06T00:02:31.524Z,2.10
2023-05-06T00:04:59.034Z,1.75
2023-05-06T00:07:26.653Z,1.70
2023-05-06T00:09:54.188Z,1.85
2023-05-06T00:12:21.657Z,2.10
2023-05-06T00:14:51.105Z,1.77
2023-05-06T00:17:18.705Z,1.80
2023-05-06T00:19:46.184Z,1.90
2023-05-06T00:22:13.735Z,1.85
2023-05-06T00:24:41.218Z,1.92
2023-05-06T00:27:08.848Z,1.70
2023-05-06T00:29:36.842Z,2.25
2023-05-06T00:32:06.131Z,1.73
2023-05-06T00:34:34.023Z,1.85
2023-05-06T00:37:01.708Z,2.25
2023-05-06T00:39:30.689Z,2.08
2023-05-06T00:42:00.377Z,1.73
2023-05-06T00:44:27.894Z,1.85
2023-05-06T00:46:55.402Z,2.20
2023-05-06T00:49:24.432Z,1.40
2023-05-06T00:51:52.290Z,1.52
2023-05-06T00:54:19.850Z,1.75
2023-05-06T00:56:47.472Z,1.70
2023-05-06T00:59:15.063Z,1.90
2023-05-06T01:01:42.834Z,1.92
2023-05-06T01:04:10.406Z,1.65
2023-05-06T01:06:43.454Z,2.00
2023-05-06T01:09:14.506Z,1.60
2023-05-06T01:11:45.651Z,2.03
2023-05-06T01:14:16.221Z,1.73
2023-05-06T01:16:44.473Z,1.60
2023-05-06T01:19:18.272Z,1.50
2023-05-06T01:21:47.267Z,1.80
2023-05-06T01:24:16.114Z,2.28
2023-05-06T01:26:44.095Z,1.60
2023-05-06T01:29:12.613Z,1.50
2023-05-06T01:31:44.301Z,2.00
2023-05-06T01:34:15.563Z,1.90
2023-05-06T01:36:47.013Z,1.50
2023-05-06T01:39:18.091Z,1.67
2023-05-06T01:41:45.817Z,1.70
2023-05-06T01:44:14.131Z,1.55
2023-05-06T01:46:42.714Z,1.77
2023-05-06T01:49:11.548Z,1.83
2023-05-06T01:51:39.501Z,1.85
2023-05-06T01:54:07.038Z,1.67
2023-05-06T01:56:37.108Z,1.73
2023-05-06T01:59:04.877Z,1.67
2023-05-06T02:01:32.446Z,1.50
2023-05-06T02:04:00.279Z,1.90
2023-05-06T02:06:27.960Z,1.58
2023-05-06T02:08:55.451Z,1.80
2023-05-06T02:11:22.895Z,1.60
2023-05-06T02:13:51.952Z,1.60
2023-05-06T02:16:19.585Z,1.45
2023-05-06T02:18:47.167Z,2.33
2023-05-06T02:21:20.558Z,2.03
2023-05-06T02:23:48.126Z,1.70
2023-05-06T02:26:16.564Z,1.40
2023-05-06T02:28:44.130Z,1.92
2023-05-06T02:31:15.867Z,1.45
2023-05-06T02:33:43.745Z,1.50
2023-05-06T02:36:11.311Z,1.70
2023-05-06T02:38:38.810Z,1.45
2023-05-06T02:41:06.312Z,1.50
2023-05-06T02:43:33.941Z,1.60
2023-05-06T02:46:01.502Z,1.25
2023-05-06T02:48:30.377Z,1.50
2023-05-06T02:50:58.078Z,1.50
2023-05-06T02:55:52.864Z,1.60
2023-05-06T02:58:20.497Z,1.60
2023-05-06T03:00:47.941Z,1.52
2023-05-06T03:03:15.586Z,1.63
2023-05-06T03:05:44.831Z,1.80
2023-05-06T03:08:12.332Z,1.65
2023-05-06T03:10:39.890Z,1.90
2023-05-06T03:13:07.727Z,1.60
2023-05-06T03:15:35.316Z,1.50
2023-05-06T03:18:03.016Z,1.50
2023-05-06T03:20:30.723Z,1.70
2023-05-06T03:22:59.815Z,1.98
2023-05-06T03:25:27.511Z,2.25
2023-05-06T03:27:55.154Z,1.67
2023-05-06T03:30:22.685Z,1.77
2023-05-06T03:32:50.464Z,1.50
2023-05-06T03:35:18.361Z,1.70
2023-05-06T03:37:45.877Z,1.80
2023-05-06T03:40:14.930Z,1.30
2023-05-06T03:42:42.551Z,1.60
2023-05-06T03:45:10.477Z,1.60
2023-05-06T03:47:38.413Z,1.73
2023-05-06T03:50:06.452Z,1.65
2023-05-06T03:52:34.093Z,2.20
2023-05-06T03:55:01.590Z,1.42
2023-05-06T03:57:30.498Z,1.65
2023-05-06T03:59:58.075Z,1.45
2023-05-06T04:02:25.856Z,1.40
2023-05-06T04:04:53.603Z,1.90
2023-05-06T04:07:21.225Z,1.85
2023-05-06T04:09:48.771Z,1.50
2023-05-06T04:12:16.297Z,1.40
2023-05-06T04:14:45.171Z,1.33
2023-05-06T04:17:12.673Z,1.40
2023-05-06T04:19:40.425Z,2.20
2023-05-06T04:22:07.868Z,1.60
2023-05-06T04:24:35.352Z,1.60
2023-05-06T04:27:04.316Z,2.67
2023-05-06T04:29:31.792Z,1.60
2023-05-06T04:32:00.612Z,1.58
2023-05-06T04:34:28.987Z,1.40
2023-05-06T04:36:58.152Z,1.60
2023-05-06T04:39:25.720Z,1.63
2023-05-06T04:41:53.265Z,1.23
2023-05-06T04:44:20.777Z,1.80
2023-05-06T04:46:48.529Z,1.40
2023-05-06T04:49:17.485Z,1.42
2023-05-06T04:51:44.951Z,1.48
2023-05-06T04:54:12.514Z,1.60
2023-05-06T04:56:40.033Z,1.48
2023-05-06T04:59:07.690Z,1.40
2023-05-06T05:01:35.273Z,1.23
2023-05-06T05:04:02.946Z,1.27
2023-05-06T05:06:33.440Z,1.25
2023-05-06T05:09:01.155Z,1.50
2023-05-06T05:11:28.776Z,1.40
2023-05-06T05:13:57.716Z,1.35
2023-05-06T05:16:26.534Z,1.38
2023-05-06T05:18:57.212Z,1.30
2023-05-06T05:21:24.929Z,1.38
2023-05-06T05:23:53.755Z,1.45
2023-05-06T05:26:21.354Z,1.17
2023-05-06T05:28:48.867Z,1.20
2023-05-06T05:31:16.624Z,1.20
2023-05-06T05:33:44.208Z,1.48
2023-05-06T05:36:15.577Z,1.20
2023-05-06T05:38:43.320Z,1.67
2023-05-06T05:41:12.297Z,0.95
2023-05-06T05:43:39.978Z,1.85
2023-05-06T05:46:07.913Z,1.38
2023-05-06T05:48:35.832Z,1.00
2023-05-06T05:51:03.619Z,2.10
2023-05-06T05:53:31.327Z,1.02
2023-05-06T05:55:58.918Z,1.05
2023-05-06T05:58:27.908Z,1.13
2023-05-06T06:00:55.381Z,2.08
2023-05-06T06:03:23.005Z,1.50
2023-05-06T06:05:52.893Z,1.25
2023-05-06T06:08:20.380Z,1.27
2023-05-06T06:10:48.351Z,1.23
2023-05-06T06:13:15.971Z,0.80
2023-05-06T06:15:45.047Z,1.35
2023-05-06T06:18:12.851Z,0.90
2023-05-06T06:20:43.342Z,1.10
2023-05-06T06:23:11.184Z,1.13
2023-05-06T06:25:38.829Z,1.20
2023-05-06T06:28:06.280Z,1.35
2023-05-06T06:30:33.741Z,0.90
2023-05-06T06:33:03.151Z,1.10
2023-05-06T06:35:30.904Z,1.13
2023-05-06T06:37:58.362Z,1.00
2023-05-06T06:40:25.924Z,1.00
2023-05-06T06:42:53.481Z,1.17
2023-05-06T06:45:21.151Z,1.05
2023-05-06T06:47:48.873Z,0.95
2023-05-06T06:50:20.812Z,0.93
2023-05-06T06:52:49.193Z,1.00
2023-05-06T06:55:16.819Z,1.83
2023-05-06T06:57:45.051Z,1.00
2023-05-06T07:00:13.097Z,0.82
2023-05-06T07:02:40.800Z,1.10
2023-05-06T07:05:08.816Z,1.05
2023-05-06T07:07:37.782Z,0.80
2023-05-06T07:10:05.921Z,0.82
2023-05-06T07:12:33.554Z,1.20
2023-05-06T07:15:01.264Z,1.00
2023-05-06T07:17:28.829Z,1.25
2023-05-06T07:19:59.449Z,0.75
2023-05-06T07:22:27.320Z,1.27
2023-05-06T07:24:56.322Z,0.88
2023-05-06T07:27:24.299Z,1.02
2023-05-06T07:29:51.844Z,0.90
2023-05-06T07:32:19.332Z,1.10
2023-05-06T07:34:46.805Z,0.93
2023-05-06T07:37:14.290Z,1.00
2023-05-06T07:39:43.153Z,0.80
2023-05-06T07:42:13.199Z,0.93
2023-05-06T07:44:44.288Z,0.95
2023-05-06T07:47:11.923Z,0.95
2023-05-06T07:49:39.593Z,1.20
2023-05-06T07:52:08.296Z,1.20
2023-05-06T07:54:36.023Z,1.10
2023-05-06T07:57:03.572Z,0.95
2023-05-06T07:59:32.441Z,0.80
2023-05-06T08:01:59.891Z,0.93
2023-05-06T08:04:27.400Z,0.80
2023-05-06T08:06:55.076Z,1.00
2023-05-06T08:09:23.249Z,1.30
2023-05-06T08:11:51.216Z,1.00
2023-05-06T08:14:19.050Z,0.88
2023-05-06T08:16:48.092Z,1.00
2023-05-06T08:19:15.988Z,1.00
2023-05-06T08:21:43.542Z,0.75
2023-05-06T08:24:13.580Z,1.15
2023-05-06T08:26:41.277Z,1.15
2023-05-06T08:29:09.380Z,0.70
2023-05-06T08:31:36.951Z,0.90
2023-05-06T08:34:05.824Z,0.90
2023-05-06T08:36:33.356Z,0.90
2023-05-06T08:39:00.832Z,1.15
2023-05-06T08:41:28.763Z,1.05
2023-05-06T08:44:01.274Z,1.55
2023-05-06T08:46:30.847Z,1.23
2023-05-06T08:49:03.513Z,1.00
2023-05-06T08:51:33.394Z,1.00
2023-05-06T08:54:03.598Z,0.77
2023-05-06T08:56:32.432Z,0.80
2023-05-06T08:59:00.201Z,2.55
2023-05-06T09:01:28.462Z,1.17
2023-05-06T09:03:56.394Z,1.02
2023-05-06T09:06:25.097Z,1.90
2023-05-06T09:08:54.456Z,1.50
2023-05-06T09:11:25.980Z,1.63
2023-05-06T09:14:08.618Z,4.53
2023-05-06T09:16:36.455Z,2.20
2023-05-06T09:19:04.004Z,1.73
2023-05-06T09:21:33.660Z,3.78
2023-05-06T09:24:02.941Z,2.53
2023-05-06T09:26:31.169Z,1.50
2023-05-06T09:28:58.974Z,1.20
2023-05-06T09:31:26.854Z,2.05
2023-05-06T09:33:54.701Z,5.95
2023-05-06T09:36:22.483Z,3.25
2023-05-06T09:38:53.997Z,3.33
2023-05-06T09:41:24.302Z,1.60
2023-05-06T09:43:53.085Z,2.53
2023-05-06T09:46:21.857Z,2.72
2023-05-06T09:48:53.027Z,1.25
2023-05-06T09:51:20.821Z,1.58
2023-05-06T09:53:49.177Z,2.65
2023-05-06T09:56:17.249Z,1.10
2023-05-06T09:58:46.783Z,1.27
2023-05-06T10:01:19.269Z,1.67
2023-05-06T10:03:56.812Z,3.20
2023-05-06T10:06:25.510Z,1.73
2023-05-06T10:08:53.677Z,2.78
2023-05-06T10:11:22.931Z,4.35
2023-05-06T10:13:52.041Z,1.02
2023-05-06T10:16:20.177Z,1.17
2023-05-06T10:18:49.834Z,1.30
2023-05-06T10:21:24.624Z,1.73
2023-05-06T10:23:57.614Z,2.15
2023-05-06T10:26:28.025Z,1.05
2023-05-06T10:28:57.234Z,1.13
2023-05-06T10:31:24.945Z,1.10
2023-05-06T10:33:53.855Z,1.10
2023-05-06T10:36:23.237Z,0.90
2023-05-06T10:38:55.008Z,1.25
2023-05-06T10:41:22.875Z,0.88
2023-05-06T10:43:56.684Z,0.98
2023-05-06T10:46:27.201Z,1.13
2023-05-06T10:49:14.004Z,0.90
2023-05-06T10:51:41.987Z,1.30
2023-05-06T10:54:11.435Z,1.30
2023-05-06T10:56:40.052Z,1.08
2023-05-06T10:59:12.912Z,1.77
2023-05-06T11:01:42.672Z,0.80
2023-05-06T11:04:10.801Z,1.23
2023-05-06T11:06:40.408Z,1.10
2023-05-06T11:09:08.011Z,1.10
2023-05-06T11:11:48.557Z,1.20
2023-05-06T11:14:17.063Z,1.00
2023-05-06T11:16:49.702Z,1.38
2023-05-06T11:19:22.017Z,1.02
2023-05-06T11:21:50.652Z,1.08
2023-05-06T11:24:23.935Z,0.88
2023-05-06T11:26:51.844Z,2.42
2023-05-06T11:29:19.644Z,0.93
2023-05-06T11:31:47.549Z,1.13
2023-05-06T11:34:21.170Z,1.30
2023-05-06T11:36:58.553Z,1.00
2023-05-06T11:39:30.205Z,1.05
2023-05-06T11:41:59.540Z,1.27
2023-05-06T11:44:32.717Z,0.90
2023-05-06T11:47:05.720Z,1.10
2023-05-06T11:49:45.330Z,1.15
2023-05-06T11:52:24.389Z,1.00
2023-05-06T11:55:22.758Z,1.00
2023-05-06T11:58:08.578Z,1.00
2023-05-06T12:00:53.667Z,2.50
2023-05-06T12:03:22.085Z,1.50
2023-05-06T12:05:51.959Z,0.93
2023-05-06T12:08:27.436Z,1.10
2023-05-06T12:10:56.392Z,1.20
2023-05-06T12:13:24.373Z,0.90
2023-05-06T12:15:54.906Z,1.10
2023-05-06T12:18:22.972Z,1.30
2023-05-06T12:20:54.378Z,1.00
2023-05-06T12:23:22.253Z,1.30
2023-05-06T12:26:00.822Z,1.00
2023-05-06T12:28:28.388Z,1.00
2023-05-06T12:30:55.985Z,1.40
2023-05-06T12:33:23.863Z,1.50
2023-05-06T12:35:54.707Z,1.10
2023-05-06T12:38:22.400Z,1.13
2023-05-06T12:40:54.548Z,1.00
2023-05-06T12:43:29.568Z,1.80
2023-05-06T12:46:06.792Z,0.80
2023-05-06T12:48:34.793Z,1.10
2023-05-06T12:51:17.990Z,1.02
2023-05-06T12:53:45.531Z,1.00
2023-05-06T12:56:12.991Z,1.10
2023-05-06T12:58:40.674Z,1.17
2023-05-06T13:01:08.679Z,0.95
2023-05-06T13:03:38.378Z,0.95
2023-05-06T13:06:07.911Z,1.20
2023-05-06T13:08:36.102Z,1.15
2023-05-06T13:11:03.856Z,0.93
2023-05-06T13:13:31.532Z,1.30
2023-05-06T13:15:59.005Z,1.05
2023-05-06T13:18:26.525Z,1.13
2023-05-06T13:20:59.216Z,1.20
2023-05-06T13:23:40.330Z,1.10
2023-05-06T13:26:08.204Z,1.30
2023-05-06T13:28:36.636Z,1.10
2023-05-06T13:31:04.728Z,1.48
2023-05-06T13:33:32.319Z,1.27
2023-05-06T13:35:59.839Z,1.02
2023-05-06T13:38:27.648Z,1.40
2023-05-06T13:40:56.787Z,1.45
2023-05-06T13:43:25.550Z,2.03
2023-05-06T13:45:54.084Z,1.13
2023-05-06T13:48:21.728Z,1.42
2023-05-06T13:50:49.406Z,0.85
2023-05-06T13:53:17.212Z,1.33
2023-05-06T13:55:44.713Z,1.88
2023-05-06T13:58:17.065Z,1.20
2023-05-06T14:00:44.673Z,1.27
2023-05-06T14:03:12.620Z,1.17
2023-05-06T14:05:40.117Z,1.10
2023-05-06T14:08:08.312Z,1.35
2023-05-06T14:10:35.974Z,1.48
2023-05-06T14:13:06.191Z,1.27
2023-05-06T14:15:39.131Z,1.00
2023-05-06T14:18:06.773Z,1.25
2023-05-06T14:20:34.278Z,1.20
2023-05-06T14:23:02.048Z,1.00
2023-05-06T14:25:29.489Z,1.35
2023-05-06T14:27:57.247Z,1.30
2023-05-06T14:30:25.899Z,1.05
2023-05-06T14:32:54.842Z,0.90
2023-05-06T14:35:22.510Z,2.08
2023-05-06T14:37:50.017Z,1.42
2023-05-06T14:40:17.854Z,1.10
2023-05-06T14:42:45.919Z,1.20
2023-05-06T14:45:14.039Z,1.67
2023-05-06T14:47:41.633Z,1.25
2023-05-06T14:50:11.867Z,1.25
2023-05-06T14:52:39.635Z,1.20
2023-05-06T14:55:08.168Z,1.95
2023-05-06T14:57:35.789Z,1.75
2023-05-06T15:00:04.263Z,1.25
2023-05-06T15:02:32.520Z,1.08
2023-05-06T15:05:04.295Z,1.17
2023-05-06T15:07:41.577Z,1.40
2023-05-06T15:10:09.485Z,1.40
2023-05-06T15:12:37.498Z,1.55
2023-05-06T15:15:06.033Z,1.88
2023-05-06T15:17:33.559Z,1.52
2023-05-06T15:20:01.200Z,1.83
2023-05-06T15:22:28.908Z,1.63
2023-05-06T15:24:57.838Z,1.60
2023-05-06T15:27:25.350Z,2.83
2023-05-06T15:29:52.942Z,1.15
2023-05-06T15:32:20.466Z,1.70
2023-05-06T15:34:48.020Z,1.77
2023-05-06T15:37:19.320Z,1.55
2023-05-06T15:39:47.923Z,1.95
2023-05-06T15:42:16.813Z,1.70
2023-05-06T15:44:44.380Z,2.10
2023-05-06T15:47:11.872Z,2.25
2023-05-06T15:52:09.953Z,2.17
2023-05-06T15:54:37.831Z,1.48
2023-05-06T15:57:07.202Z,1.35
2023-05-06T15:59:36.523Z,1.80
2023-05-06T16:04:47.908Z,2.00
2023-05-06T16:07:15.651Z,2.10
2023-05-06T16:09:44.220Z,1.88
2023-05-06T16:12:11.761Z,1.75
2023-05-06T16:14:40.542Z,1.73
2023-05-06T16:17:08.051Z,1.70
2023-05-06T16:19:35.772Z,1.73
2023-05-06T16:22:03.686Z,1.88
2023-05-06T16:24:31.177Z,1.60
2023-05-06T16:26:59.128Z,2.42
2023-05-06T16:29:26.674Z,1.67
2023-05-06T16:31:55.581Z,1.20
2023-05-06T16:34:23.293Z,2.33
2023-05-06T16:36:50.815Z,1.65
2023-05-06T16:39:18.398Z,1.70
2023-05-06T16:41:47.429Z,2.28
2023-05-06T16:44:14.959Z,1.60
2023-05-06T16:46:42.572Z,1.55
2023-05-06T16:49:11.511Z,1.83
2023-05-06T16:51:39.272Z,1.77
2023-05-06T16:54:08.740Z,1.63
2023-05-06T16:56:48.148Z,1.55
2023-05-06T16:59:22.003Z,1.92
2023-05-06T17:01:50.131Z,1.42
2023-05-06T17:04:18.986Z,1.75
2023-05-06T17:06:48.662Z,2.20
2023-05-06T17:09:16.862Z,1.38
2023-05-06T17:11:44.419Z,1.75
2023-05-06T17:14:12.076Z,1.60
2023-05-06T17:16:39.816Z,1.80
2023-05-06T17:19:07.497Z,1.85
2023-05-06T17:21:36.291Z,2.03
2023-05-06T17:24:03.943Z,1.75
2023-05-06T17:26:32.447Z,1.90
2023-05-06T17:29:00.230Z,2.17
2023-05-06T17:31:27.777Z,1.92
2023-05-06T17:33:55.331Z,1.90
2023-05-06T17:36:23.076Z,1.42
2023-05-06T17:38:53.024Z,1.60
2023-05-06T17:41:21.197Z,1.50
2023-05-06T17:43:49.118Z,1.73
2023-05-06T17:46:18.241Z,2.00
2023-05-06T17:48:46.942Z,1.70
2023-05-06T17:51:14.493Z,1.65
2023-05-06T17:53:42.298Z,1.77
2023-05-06T17:56:11.156Z,1.90
2023-05-06T17:58:38.796Z,1.80
2023-05-06T18:01:06.799Z,1.65
2023-05-06T18:03:34.357Z,2.53
2023-05-06T18:06:01.891Z,1.90
2023-05-06T18:08:29.564Z,2.20
2023-05-06T18:10:57.165Z,2.08
2023-05-06T18:13:26.398Z,1.83
2023-05-06T18:15:54.142Z,2.30
2023-05-06T18:18:21.702Z,2.20
2023-05-06T18:20:49.191Z,2.20
2023-05-06T18:23:16.764Z,2.17
2023-05-06T18:25:44.260Z,1.65
2023-05-06T18:28:12.090Z,2.13
2023-05-06T18:30:41.592Z,2.45
2023-05-06T18:33:09.136Z,2.20
2023-05-06T18:35:36.730Z,1.98
2023-05-06T18:38:04.374Z,1.80
2023-05-06T18:40:32.048Z,2.50
2023-05-06T18:42:59.620Z,1.95
2023-05-06T18:45:27.240Z,2.30
2023-05-06T18:47:56.154Z,2.20
2023-05-06T18:50:25.764Z,2.00
2023-05-06T18:52:53.951Z,1.70
2023-05-06T18:55:21.541Z,2.55
2023-05-06T18:57:49.079Z,1.85
2023-05-06T19:00:16.868Z,1.83
2023-05-06T19:02:44.442Z,1.45
2023-05-06T19:05:13.537Z,1.67
2023-05-06T19:07:41.844Z,2.20
2023-05-06T19:10:13.882Z,2.05
2023-05-06T19:12:41.600Z,2.45
2023-05-06T19:15:12.311Z,2.20
2023-05-06T19:17:42.409Z,2.80
2023-05-06T19:20:10.560Z,2.30
2023-05-06T19:22:39.522Z,2.30
2023-05-06T19:25:10.814Z,2.38
2023-05-06T19:27:38.626Z,2.53
2023-05-06T19:30:07.350Z,2.83
2023-05-06T19:32:37.498Z,3.17
2023-05-06T19:35:08.156Z,3.15
2023-05-06T19:37:36.708Z,3.03
2023-05-06T19:40:09.485Z,3.70
2023-05-06T19:42:37.044Z,3.75
2023-05-06T19:45:07.800Z,4.50
2023-05-06T19:47:35.391Z,3.20
2023-05-06T19:50:03.383Z,5.45
2023-05-06T19:52:31.621Z,4.00
2023-05-06T19:55:00.156Z,4.15
2023-05-06T19:57:28.969Z,3.75
2023-05-06T19:59:57.080Z,4.25
2023-05-06T20:02:25.179Z,4.00
2023-05-06T20:04:52.715Z,3.67
2023-05-06T20:07:21.169Z,4.15
2023-05-06T20:09:55.146Z,3.90
2023-05-06T20:12:22.874Z,3.85
2023-05-06T20:14:52.458Z,3.70
2023-05-06T20:17:20.177Z,4.68
2023-05-06T20:19:47.959Z,4.30
2023-05-06T20:22:15.609Z,3.40
2023-05-06T20:24:43.371Z,4.45
2023-05-06T20:27:11.176Z,4.05
2023-05-06T20:29:38.663Z,3.58
2023-05-06T20:32:07.937Z,3.58
2023-05-06T20:34:35.731Z,3.90
2023-05-06T20:37:04.650Z,3.90
2023-05-06T20:39:32.162Z,5.78
2023-05-06T20:41:59.761Z,3.50
2023-05-06T20:44:27.236Z,3.90
2023-05-06T20:46:54.790Z,4.35
2023-05-06T20:49:23.946Z,4.40
2023-05-06T20:51:51.475Z,4.68
2023-05-06T20:54:21.944Z,3.67
2023-05-06T20:56:49.485Z,3.97
2023-05-06T20:59:16.998Z,4.07
2023-05-06T21:01:45.633Z,3.50
2023-05-06T21:04:13.799Z,3.70
2023-05-06T21:06:42.748Z,4.30
2023-05-06T21:09:10.358Z,4.25
2023-05-06T21:11:38.016Z,5.22
2023-05-06T21:14:06.293Z,3.70
2023-05-06T21:16:34.315Z,3.05
2023-05-06T21:19:02.045Z,3.08
2023-05-06T21:21:31.009Z,2.78
2023-05-06T21:24:00.142Z,2.85
2023-05-06T21:26:27.769Z,2.75
2023-05-06T21:28:55.502Z,3.25
2023-05-06T21:31:25.315Z,3.38
2023-05-06T21:33:55.398Z,2.97
2023-05-06T21:36:23.133Z,3.20
2023-05-06T21:39:02.155Z,2.83
2023-05-06T21:41:31.096Z,3.42
2023-05-06T21:43:58.634Z,5.10
2023-05-06T21:46:26.437Z,6.28
2023-05-06T21:48:53.987Z,3.83
2023-05-06T21:51:21.469Z,5.03
2023-05-06T21:53:51.775Z,2.70
2023-05-06T21:56:19.383Z,3.42
2023-05-06T21:58:48.494Z,4.95
2023-05-06T22:01:16.176Z,3.60
2023-05-06T22:03:45.904Z,3.47
2023-05-06T22:06:13.635Z,3.35
2023-05-06T22:08:41.521Z,2.72
2023-05-06T22:11:09.019Z,2.85
2023-05-06T22:13:36.588Z,3.55
2023-05-06T22:16:06.594Z,3.15
2023-05-06T22:18:36.020Z,3.17
2023-05-06T22:21:03.599Z,2.90
2023-05-06T22:23:31.214Z,3.08
2023-05-06T22:26:00.298Z,3.17
2023-05-06T22:28:28.402Z,3.35
2023-05-06T22:30:56.024Z,2.17
2023-05-06T22:33:24.967Z,3.88
2023-05-06T22:35:52.654Z,2.80
2023-05-06T22:38:20.916Z,4.35
2023-05-06T22:40:48.563Z,2.90
2023-05-06T22:43:16.162Z,2.97
2023-05-06T22:45:44.244Z,3.75
2023-05-06T22:48:12.243Z,2.72
2023-05-06T22:50:41.169Z,2.78
2023-05-06T22:53:15.017Z,2.83
2023-05-06T22:55:43.446Z,2.50
2023-05-06T22:58:11.099Z,3.03
2023-05-06T23:00:39.206Z,2.75
2023-05-06T23:03:06.914Z,2.38
2023-05-06T23:05:34.523Z,2.78
2023-05-06T23:08:03.786Z,2.35
2023-05-06T23:10:31.501Z,2.45
2023-05-06T23:13:05.956Z,2.40
2023-05-06T23:15:33.593Z,2.95
2023-05-06T23:18:01.412Z,2.40
2023-05-06T23:20:29.022Z,2.45
2023-05-06T23:22:56.535Z,2.30
2023-05-06T23:25:26.869Z,2.58
2023-05-06T23:27:54.527Z,2.75
2023-05-06T23:30:22.125Z,2.20
2023-05-06T23:32:49.772Z,1.92
2023-05-06T23:35:17.415Z,2.67
2023-05-06T23:37:44.978Z,2.50
2023-05-06T23:40:14.012Z,2.47
2023-05-06T23:42:43.524Z,2.58
2023-05-06T23:45:12.029Z,2.30
2023-05-06T23:47:39.733Z,2.83
2023-05-06T23:50:07.764Z,2.00
2023-05-06T23:52:37.244Z,2.90
2023-05-06T23:55:05.170Z,2.63
2023-05-06T23:57:32.866Z,2.17
